createdAt,value
2023-02-03T00:01:03.434Z,16.02
2023-02-03T00:03:31.252Z,18.88
2023-02-03T00:05:58.980Z,17.95
2023-02-03T00:08:26.771Z,18.52
2023-02-03T00:10:55.987Z,18.05
2023-02-03T00:13:25.784Z,19.95
2023-02-03T00:15:53.724Z,17.83
2023-02-03T00:18:21.425Z,15.90
2023-02-03T00:20:49.076Z,17.85
2023-02-03T00:23:16.761Z,17.13
2023-02-03T00:25:44.372Z,16.33
2023-02-03T00:28:13.403Z,16.55
2023-02-03T00:30:41.234Z,18.65
2023-02-03T00:33:08.843Z,16.95
2023-02-03T00:35:39.007Z,17.00
2023-02-03T00:38:06.709Z,15.88
2023-02-03T00:40:34.377Z,17.00
2023-02-03T00:43:02.603Z,16.67
2023-02-03T00:45:31.653Z,18.60
2023-02-03T00:47:59.374Z,17.15
2023-02-03T00:50:27.492Z,17.08
2023-02-03T00:52:55.295Z,18.42
2023-02-03T00:55:22.938Z,15.88
2023-02-03T00:57:50.636Z,17.52
2023-02-03T01:00:19.425Z,17.60
2023-02-03T01:02:48.673Z,17.73
2023-02-03T01:05:16.493Z,17.20
2023-02-03T01:07:44.135Z,15.45
2023-02-03T01:10:12.320Z,16.48
2023-02-03T01:12:39.998Z,15.38
2023-02-03T01:15:08.446Z,17.98
2023-02-03T01:17:36.115Z,16.73
2023-02-03T01:20:06.153Z,16.33
2023-02-03T01:22:33.849Z,16.17
2023-02-03T01:25:01.612Z,15.43
2023-02-03T01:27:29.324Z,16.45
2023-02-03T01:29:57.304Z,16.08
2023-02-03T01:32:24.985Z,16.83
2023-02-03T01:34:52.648Z,16.17
2023-02-03T01:37:21.686Z,15.32
2023-02-03T01:39:49.340Z,17.42
2023-02-03T01:42:17.449Z,16.30
2023-02-03T01:44:47.561Z,16.75
2023-02-03T01:47:23.150Z,16.25
2023-02-03T01:49:56.034Z,16.02
2023-02-03T01:52:25.705Z,15.70
2023-02-03T01:54:56.403Z,14.95
2023-02-03T01:57:30.618Z,14.82
2023-02-03T02:00:01.405Z,16.95
2023-02-03T02:02:30.152Z,13.48
2023-02-03T02:05:04.125Z,14.20
2023-02-03T02:07:35.066Z,15.50
2023-02-03T02:10:03.566Z,15.88
2023-02-03T02:12:31.223Z,13.73
2023-02-03T02:14:59.498Z,12.98
2023-02-03T02:17:42.713Z,14.75
2023-02-03T02:20:47.803Z,15.02
2023-02-03T02:23:37.677Z,14.95
2023-02-03T02:26:31.269Z,15.43
2023-02-03T02:29:19.849Z,15.00
2023-02-03T02:32:03.261Z,14.98
2023-02-03T02:34:44.015Z,15.95
2023-02-03T02:37:20.776Z,15.20
2023-02-03T02:39:57.052Z,14.32
2023-02-03T02:42:36.162Z,16.92
2023-02-03T02:45:13.571Z,14.15
2023-02-03T02:47:43.115Z,14.63
2023-02-03T02:50:15.694Z,14.43
2023-02-03T02:52:47.306Z,15.35
2023-02-03T02:55:19.861Z,14.93
2023-02-03T02:57:49.111Z,14.95
2023-02-03T03:00:19.848Z,13.65
2023-02-03T03:02:48.845Z,14.40
2023-02-03T03:05:18.706Z,14.23
2023-02-03T03:07:56.206Z,13.02
2023-02-03T03:10:30.394Z,13.65
2023-02-03T03:13:02.717Z,14.15
2023-02-03T03:15:33.303Z,11.88
2023-02-03T03:18:06.948Z,10.90
2023-02-03T03:20:37.481Z,10.43
2023-02-03T03:23:08.534Z,11.43
2023-02-03T03:25:41.321Z,11.30
2023-02-03T03:28:14.882Z,11.25
2023-02-03T03:30:43.063Z,10.90
2023-02-03T03:33:12.182Z,9.95
2023-02-03T03:35:45.560Z,10.43
2023-02-03T03:38:19.178Z,11.00
2023-02-03T03:40:52.801Z,8.52
2023-02-03T03:43:24.935Z,8.93
2023-02-03T03:45:57.081Z,8.77
2023-02-03T03:48:31.323Z,8.80
2023-02-03T03:51:04.284Z,8.93
2023-02-03T03:53:35.592Z,8.48
2023-02-03T03:56:07.852Z,8.30
2023-02-03T03:58:38.329Z,9.25
2023-02-03T04:01:08.957Z,8.63
2023-02-03T04:03:42.799Z,8.00
2023-02-03T04:06:10.567Z,7.35
2023-02-03T04:08:39.341Z,8.10
2023-02-03T04:11:07.243Z,8.68
2023-02-03T04:13:34.986Z,7.90
2023-02-03T04:16:02.775Z,9.25
2023-02-03T04:18:30.638Z,7.75
2023-02-03T04:20:59.629Z,8.75
2023-02-03T04:23:27.372Z,9.15
2023-02-03T04:25:55.011Z,8.13
2023-02-03T04:28:22.637Z,8.60
2023-02-03T04:30:50.407Z,8.82
2023-02-03T04:33:18.050Z,8.48
2023-02-03T04:35:45.713Z,7.97
2023-02-03T04:38:14.709Z,8.30
2023-02-03T04:40:42.594Z,8.30
2023-02-03T04:43:10.233Z,8.93
2023-02-03T04:45:38.380Z,8.77
2023-02-03T04:48:06.254Z,8.00
2023-02-03T04:50:33.983Z,8.13
2023-02-03T04:53:01.633Z,9.55
2023-02-03T04:55:30.672Z,8.57
2023-02-03T04:57:58.516Z,6.63
2023-02-03T05:00:26.980Z,8.35
2023-02-03T05:02:55.058Z,6.97
2023-02-03T05:05:22.932Z,9.48
2023-02-03T05:07:50.591Z,8.05
2023-02-03T05:10:18.292Z,8.27
2023-02-03T05:12:47.253Z,7.75
2023-02-03T05:15:15.193Z,8.00
2023-02-03T05:17:42.819Z,7.22
2023-02-03T05:20:11.902Z,7.07
2023-02-03T05:22:39.549Z,6.70
2023-02-03T05:25:08.146Z,7.95
2023-02-03T05:27:36.046Z,7.00
2023-02-03T05:30:05.742Z,6.90
2023-02-03T05:32:33.455Z,6.15
2023-02-03T05:35:01.180Z,6.88
2023-02-03T05:37:29.076Z,6.35
2023-02-03T05:40:17.486Z,6.20
2023-02-03T05:42:48.385Z,5.93
2023-02-03T05:45:17.886Z,5.78
2023-02-03T05:47:45.567Z,5.82
2023-02-03T05:50:13.370Z,5.80
2023-02-03T05:52:41.070Z,5.55
2023-02-03T05:55:09.135Z,5.63
2023-02-03T05:57:36.788Z,5.82
2023-02-03T06:00:06.303Z,4.47
2023-02-03T06:02:40.703Z,4.75
2023-02-03T06:05:08.865Z,5.25
2023-02-03T06:07:36.648Z,4.93
2023-02-03T06:10:04.405Z,4.85
2023-02-03T06:12:32.066Z,6.05
2023-02-03T06:14:59.741Z,5.22
2023-02-03T06:17:27.404Z,5.35
2023-02-03T06:19:56.404Z,4.30
2023-02-03T06:22:24.500Z,5.75
2023-02-03T06:24:52.151Z,5.00
2023-02-03T06:27:19.986Z,4.80
2023-02-03T06:29:47.643Z,4.32
2023-02-03T06:32:15.514Z,4.85
2023-02-03T06:34:43.200Z,4.22
2023-02-03T06:37:12.207Z,4.30
2023-02-03T06:39:39.991Z,4.65
2023-02-03T06:42:07.736Z,4.40
2023-02-03T06:44:35.467Z,4.53
2023-02-03T06:47:03.174Z,4.68
2023-02-03T06:49:31.030Z,4.10
2023-02-03T06:51:59.001Z,4.57
2023-02-03T06:54:28.123Z,4.35
2023-02-03T06:56:55.750Z,4.93
2023-02-03T06:59:23.417Z,4.40
2023-02-03T07:01:51.109Z,4.90
2023-02-03T07:04:19.004Z,4.60
2023-02-03T07:06:47.012Z,4.15
2023-02-03T07:09:14.791Z,5.10
2023-02-03T07:11:43.741Z,4.55
2023-02-03T07:14:11.385Z,5.25
2023-02-03T07:16:39.017Z,5.72
2023-02-03T07:19:06.866Z,5.85
2023-02-03T07:21:34.597Z,5.43
2023-02-03T07:24:03.294Z,5.68
2023-02-03T07:26:31.023Z,5.47
2023-02-03T07:29:00.832Z,5.65
2023-02-03T07:31:28.689Z,6.13
2023-02-03T07:33:56.440Z,5.85
2023-02-03T07:36:24.941Z,6.05
2023-02-03T07:38:52.584Z,5.10
2023-02-03T07:41:20.275Z,6.15
2023-02-03T07:43:48.147Z,5.18
2023-02-03T07:46:17.222Z,5.32
2023-02-03T07:48:44.964Z,4.80
2023-02-03T07:51:12.648Z,5.32
2023-02-03T07:53:40.355Z,4.57
2023-02-03T07:56:08.107Z,5.07
2023-02-03T07:58:35.814Z,5.53
2023-02-03T08:01:10.555Z,4.75
2023-02-03T08:03:39.713Z,4.43
2023-02-03T08:06:08.038Z,4.80
2023-02-03T08:08:36.223Z,6.40
2023-02-03T08:11:04.009Z,6.15
2023-02-03T08:13:31.686Z,5.22
2023-02-03T08:15:59.474Z,6.18
2023-02-03T08:18:27.476Z,5.97
2023-02-03T08:20:59.410Z,6.60
2023-02-03T08:23:27.050Z,6.18
2023-02-03T08:25:54.823Z,5.60
2023-02-03T08:28:22.554Z,5.70
2023-02-03T08:30:50.328Z,5.68
2023-02-03T08:33:18.327Z,6.45
2023-02-03T08:35:47.511Z,5.70
2023-02-03T08:38:17.155Z,6.05
2023-02-03T08:40:44.837Z,5.70
2023-02-03T08:43:12.530Z,7.38
2023-02-03T08:45:40.684Z,6.15
2023-02-03T08:48:08.707Z,6.15
2023-02-03T08:50:36.353Z,6.20
2023-02-03T08:53:04.092Z,8.85
2023-02-03T08:55:33.163Z,6.30
2023-02-03T08:58:00.932Z,6.72
2023-02-03T09:00:29.065Z,6.32
2023-02-03T09:02:57.036Z,6.85
2023-02-03T09:05:24.700Z,6.95
2023-02-03T09:07:52.393Z,6.95
2023-02-03T09:10:20.134Z,6.85
2023-02-03T09:12:49.268Z,7.90
2023-02-03T09:15:17.131Z,7.22
2023-02-03T09:17:44.826Z,7.93
2023-02-03T09:20:15.097Z,7.40
2023-02-03T09:22:42.892Z,7.75
2023-02-03T09:25:10.695Z,8.45
2023-02-03T09:27:38.506Z,8.25
2023-02-03T09:30:08.671Z,9.10
2023-02-03T09:32:36.354Z,7.90
2023-02-03T09:35:04.030Z,7.47
2023-02-03T09:37:31.740Z,7.55
2023-02-03T09:39:59.448Z,8.50
2023-02-03T09:42:54.548Z,8.77
2023-02-03T09:45:27.131Z,8.40
2023-02-03T09:47:58.192Z,9.48
2023-02-03T09:50:29.803Z,9.88
2023-02-03T09:52:59.769Z,9.30
2023-02-03T09:55:34.837Z,10.52
2023-02-03T09:58:06.528Z,10.57
2023-02-03T10:00:37.960Z,11.50
2023-02-03T10:03:12.974Z,11.15
2023-02-03T10:05:56.298Z,10.65
2023-02-03T10:08:36.879Z,12.05
2023-02-03T10:11:17.696Z,11.60
2023-02-03T10:13:57.411Z,11.10
2023-02-03T10:16:38.786Z,10.30
2023-02-03T10:19:13.922Z,11.93
2023-02-03T10:21:47.067Z,11.07
2023-02-03T10:24:18.195Z,10.32
2023-02-03T10:26:45.939Z,10.88
2023-02-03T10:29:21.254Z,11.07
2023-02-03T10:31:50.484Z,11.07
2023-02-03T10:34:19.728Z,11.88
2023-02-03T10:36:56.680Z,11.70
2023-02-03T10:39:34.120Z,11.90
2023-02-03T10:42:03.594Z,10.95
2023-02-03T10:44:39.388Z,10.52
2023-02-03T10:47:24.258Z,10.77
2023-02-03T10:49:52.869Z,10.25
2023-02-03T10:52:31.940Z,9.43
2023-02-03T10:55:00.412Z,9.57
2023-02-03T10:57:31.049Z,10.18
2023-02-03T11:00:09.625Z,11.27
2023-02-03T11:02:38.825Z,9.02
2023-02-03T11:05:11.980Z,10.05
2023-02-03T11:07:39.683Z,9.95
2023-02-03T11:10:28.225Z,9.20
2023-02-03T11:13:12.546Z,9.75
2023-02-03T11:15:45.248Z,8.60
2023-02-03T11:18:44.885Z,7.60
2023-02-03T11:21:16.152Z,7.30
2023-02-03T11:23:49.874Z,7.45
2023-02-03T11:26:21.604Z,8.35
2023-02-03T11:28:52.674Z,9.52
2023-02-03T11:31:26.435Z,7.10
2023-02-03T11:33:59.792Z,6.70
2023-02-03T11:36:29.674Z,8.57
2023-02-03T11:39:20.084Z,8.10
2023-02-03T11:41:48.554Z,6.70
2023-02-03T11:44:26.131Z,6.70
2023-02-03T11:46:57.170Z,6.30
2023-02-03T11:50:02.969Z,6.45
2023-02-03T11:52:57.272Z,5.85
2023-02-03T11:55:44.661Z,6.70
2023-02-03T11:58:35.190Z,6.68
2023-02-03T12:01:13.277Z,7.35
2023-02-03T12:03:53.621Z,8.10
2023-02-03T12:06:49.472Z,7.05
2023-02-03T12:09:30.816Z,7.90
2023-02-03T12:12:16.440Z,6.85
2023-02-03T12:14:54.538Z,7.18
2023-02-03T12:17:41.113Z,7.55
2023-02-03T12:20:24.273Z,8.10
2023-02-03T12:23:03.234Z,8.85
2023-02-03T12:25:42.521Z,8.55
2023-02-03T12:28:32.796Z,8.95
2023-02-03T12:31:05.729Z,9.65
2023-02-03T12:33:40.427Z,9.48
2023-02-03T12:36:14.856Z,8.25
2023-02-03T12:38:52.115Z,7.80
2023-02-03T12:41:25.505Z,10.02
2023-02-03T12:43:59.372Z,10.15
2023-02-03T12:46:31.411Z,9.70
2023-02-03T12:49:04.176Z,9.43
2023-02-03T12:51:37.347Z,9.68
2023-02-03T12:54:19.527Z,8.88
2023-02-03T12:56:51.823Z,10.15
2023-02-03T12:59:23.843Z,8.70
2023-02-03T13:01:57.673Z,9.52
2023-02-03T13:04:33.953Z,9.43
2023-02-03T13:07:09.411Z,9.07
2023-02-03T13:09:45.399Z,8.57
2023-02-03T13:12:18.120Z,8.20
2023-02-03T13:14:50.118Z,8.70
2023-02-03T13:17:21.692Z,8.15
2023-02-03T13:19:53.120Z,7.68
2023-02-03T13:22:23.772Z,7.82
2023-02-03T13:24:59.800Z,7.30
2023-02-03T13:27:40.549Z,6.93
2023-02-03T13:30:22.490Z,7.50
2023-02-03T13:33:12.795Z,8.05
2023-02-03T13:35:53.282Z,6.95
2023-02-03T13:38:40.405Z,6.20
2023-02-03T13:41:17.526Z,5.75
2023-02-03T13:43:48.037Z,7.00
2023-02-03T13:46:23.218Z,8.45
2023-02-03T13:48:52.310Z,5.53
2023-02-03T13:51:24.022Z,5.55
2023-02-03T13:53:59.650Z,6.30
2023-02-03T13:56:29.527Z,5.60
2023-02-03T13:59:03.527Z,6.20
2023-02-03T14:01:34.473Z,6.97
2023-02-03T14:04:03.112Z,8.43
2023-02-03T14:07:02.895Z,6.47
2023-02-03T14:09:47.103Z,7.75
2023-02-03T14:12:41.493Z,7.53
2023-02-03T14:15:24.606Z,7.47
2023-02-03T14:17:58.450Z,7.32
2023-02-03T14:20:47.826Z,7.38
2023-02-03T14:23:20.794Z,5.80
2023-02-03T14:25:53.789Z,4.60
2023-02-03T14:28:26.942Z,5.35
2023-02-03T14:31:22.633Z,5.15
2023-02-03T14:34:07.012Z,3.88
2023-02-03T14:36:52.836Z,3.80
2023-02-03T14:39:58.371Z,3.72
2023-02-03T14:42:44.279Z,4.75
2023-02-03T14:45:30.934Z,3.75
2023-02-03T14:48:13.709Z,4.20
2023-02-03T14:50:53.801Z,4.70
2023-02-03T14:53:39.570Z,4.03
2023-02-03T14:56:23.926Z,4.63
2023-02-03T14:58:56.715Z,4.35
2023-02-03T15:01:29.622Z,3.55
2023-02-03T15:04:22.994Z,5.03
2023-02-03T15:06:53.137Z,5.18
2023-02-03T15:09:31.268Z,4.28
2023-02-03T15:11:58.930Z,4.25
2023-02-03T15:14:28.533Z,3.83
2023-02-03T15:16:59.918Z,5.18
2023-02-03T15:19:30.884Z,5.88
2023-02-03T15:21:58.580Z,5.25
2023-02-03T15:24:26.306Z,4.43
2023-02-03T15:26:56.154Z,6.57
2023-02-03T15:29:28.664Z,5.07
2023-02-03T15:32:03.581Z,5.22
2023-02-03T15:34:36.286Z,5.60
2023-02-03T15:37:09.157Z,4.05
2023-02-03T15:39:48.775Z,5.75
2023-02-03T15:42:23.717Z,5.15
2023-02-03T15:44:57.983Z,6.30
2023-02-03T15:47:33.451Z,6.07
2023-02-03T15:50:07.517Z,6.00
2023-02-03T15:52:40.734Z,5.03
2023-02-03T15:55:18.436Z,4.38
2023-02-03T15:57:50.298Z,5.70
2023-02-03T16:00:31.999Z,5.90
2023-02-03T16:03:03.314Z,4.20
2023-02-03T16:05:33.467Z,4.60
2023-02-03T16:08:42.848Z,5.05
2023-02-03T16:11:28.636Z,4.97
2023-02-03T16:13:59.549Z,5.10
2023-02-03T16:16:30.575Z,6.05
2023-02-03T16:19:03.806Z,5.90
2023-02-03T16:21:35.853Z,5.30
2023-02-03T16:24:06.251Z,5.38
2023-02-03T16:26:36.522Z,6.78
2023-02-03T16:29:31.328Z,4.93
2023-02-03T16:32:17.071Z,5.50
2023-02-03T16:35:04.016Z,5.18
2023-02-03T16:37:51.531Z,4.65
2023-02-03T16:40:39.667Z,5.47
2023-02-03T16:43:30.171Z,5.47
2023-02-03T16:46:16.719Z,5.53
2023-02-03T16:49:01.944Z,7.55
2023-02-03T16:51:38.801Z,5.25
2023-02-03T16:54:07.028Z,6.05
2023-02-03T16:56:34.720Z,5.38
2023-02-03T16:59:02.616Z,5.15
2023-02-03T17:01:30.406Z,6.20
2023-02-03T17:03:58.063Z,6.13
2023-02-03T17:06:25.673Z,5.97
2023-02-03T17:08:54.727Z,5.95
2023-02-03T17:11:24.661Z,5.80
2023-02-03T17:13:52.484Z,5.63
2023-02-03T17:16:22.821Z,4.95
2023-02-03T17:18:50.889Z,6.18
2023-02-03T17:21:20.358Z,6.57
2023-02-03T17:23:48.043Z,5.90
2023-02-03T17:26:17.422Z,4.90
2023-02-03T17:28:45.430Z,5.50
2023-02-03T17:31:15.569Z,5.00
2023-02-03T17:33:43.648Z,4.90
2023-02-03T17:36:13.618Z,4.75
2023-02-03T17:55:17.525Z,5.85
2023-02-03T17:57:47.851Z,6.40
2023-02-03T18:00:16.349Z,6.95
2023-02-03T18:02:44.382Z,6.07
2023-02-03T18:05:12.289Z,6.07
2023-02-03T18:07:39.906Z,6.65
2023-02-03T18:10:08.776Z,8.02
2023-02-03T18:12:36.455Z,7.00
2023-02-03T18:15:05.915Z,6.63
2023-02-03T18:17:33.569Z,7.53
2023-02-03T18:20:02.463Z,7.28
2023-02-03T18:22:30.153Z,8.43
2023-02-03T18:24:59.019Z,7.38
2023-02-03T18:27:26.636Z,7.18
2023-02-03T18:29:54.295Z,8.90
2023-02-03T18:32:23.376Z,8.23
2023-02-03T18:34:51.405Z,7.40
2023-02-03T18:37:19.031Z,8.65
2023-02-03T18:39:47.965Z,7.95
2023-02-03T18:42:15.892Z,6.68
2023-02-03T18:44:44.388Z,6.00
2023-02-03T18:47:12.037Z,5.35
2023-02-03T18:49:41.062Z,4.07
2023-02-03T18:52:08.941Z,5.57
2023-02-03T18:54:36.571Z,5.60
2023-02-03T18:57:05.746Z,7.63
2023-02-03T18:59:33.458Z,8.00
2023-02-03T19:02:01.193Z,6.55
2023-02-03T19:04:28.792Z,5.45
2023-02-03T19:06:57.792Z,5.93
2023-02-03T19:09:25.427Z,5.82
2023-02-03T19:11:53.101Z,4.80
2023-02-03T19:14:21.088Z,6.65
2023-02-03T19:16:50.360Z,4.53
2023-02-03T19:19:18.335Z,5.40
2023-02-03T19:21:46.203Z,5.82
2023-02-03T19:24:15.678Z,5.85
2023-02-03T19:26:43.607Z,5.00
2023-02-03T19:29:11.519Z,5.95
2023-02-03T19:31:39.335Z,5.45
2023-02-03T19:34:07.142Z,7.68
2023-02-03T19:36:34.830Z,5.32
2023-02-03T19:39:02.500Z,6.50
2023-02-03T19:41:33.873Z,6.57
2023-02-03T19:44:01.505Z,5.55
2023-02-03T19:46:32.504Z,5.15
2023-02-03T19:49:00.260Z,5.80
2023-02-03T19:51:27.913Z,6.32
2023-02-03T19:53:55.588Z,6.78
2023-02-03T19:56:23.254Z,7.38
2023-02-03T19:58:53.680Z,5.72
2023-02-03T20:01:22.828Z,7.43
2023-02-03T20:03:50.874Z,6.38
2023-02-03T20:06:19.280Z,8.38
2023-02-03T20:08:47.255Z,5.30
2023-02-03T20:11:15.111Z,5.65
2023-02-03T20:13:43.420Z,4.35
2023-02-03T20:16:12.539Z,3.80
2023-02-03T20:18:40.268Z,4.72
2023-02-03T20:21:08.012Z,6.20
2023-02-03T20:23:35.756Z,4.97
2023-02-03T20:26:04.281Z,6.25
2023-02-03T20:28:32.129Z,4.85
2023-02-03T20:31:02.075Z,5.65
2023-02-03T20:33:31.935Z,5.82
2023-02-03T20:35:59.790Z,4.63
2023-02-03T20:38:28.328Z,4.85
2023-02-03T20:40:56.163Z,5.55
2023-02-03T20:43:27.760Z,4.90
2023-02-03T20:45:56.118Z,5.22
2023-02-03T20:48:25.465Z,4.75
2023-02-03T20:50:54.608Z,7.65
2023-02-03T20:53:24.165Z,5.25
2023-02-03T20:55:53.171Z,4.30
2023-02-03T20:58:24.844Z,4.70
2023-02-03T21:00:53.408Z,4.97
2023-02-03T21:03:40.770Z,6.20
2023-02-03T21:06:17.118Z,5.20
2023-02-03T21:08:45.444Z,5.00
2023-02-03T21:11:14.816Z,3.88
2023-02-03T21:13:45.249Z,4.03
2023-02-03T21:16:18.460Z,4.45
2023-02-03T21:18:49.724Z,5.13
2023-02-03T21:21:24.714Z,4.63
2023-02-03T21:23:53.550Z,4.22
2023-02-03T21:26:22.733Z,5.18
2023-02-03T21:28:52.442Z,4.68
2023-02-03T21:31:23.846Z,6.15
2023-02-03T21:33:53.379Z,5.18
2023-02-03T21:36:24.014Z,4.43
2023-02-03T21:38:54.491Z,5.05
2023-02-03T21:41:24.305Z,5.32
2023-02-03T21:43:54.502Z,5.18
2023-02-03T21:46:26.485Z,4.45
2023-02-03T21:48:55.774Z,5.80
2023-02-03T21:51:26.579Z,5.13
2023-02-03T21:53:56.455Z,5.57
2023-02-03T21:56:26.903Z,5.00
2023-02-03T21:58:58.275Z,5.20
2023-02-03T22:01:27.154Z,5.40
2023-02-03T22:03:56.002Z,4.85
2023-02-03T22:06:27.043Z,4.28
2023-02-03T22:08:56.688Z,4.32
2023-02-03T22:11:25.697Z,5.10
2023-02-03T22:13:53.337Z,5.40
2023-02-03T22:16:21.641Z,5.45
2023-02-03T22:18:50.280Z,5.53
2023-02-03T22:21:19.134Z,5.60
2023-02-03T22:23:48.983Z,6.20
2023-02-03T22:26:17.743Z,5.45
2023-02-03T22:28:46.193Z,4.95
2023-02-03T22:31:14.624Z,6.03
2023-02-03T22:33:42.952Z,4.88
2023-02-03T22:36:11.745Z,4.82
2023-02-03T22:38:40.628Z,6.00
2023-02-03T22:41:11.777Z,4.15
2023-02-03T22:43:39.614Z,5.65
2023-02-03T22:46:07.615Z,4.60
2023-02-03T22:48:35.457Z,4.82
2023-02-03T22:51:03.175Z,5.43
2023-02-03T22:53:31.390Z,5.53
2023-02-03T22:55:59.150Z,5.85
2023-02-03T22:58:28.458Z,6.25
2023-02-03T23:00:56.107Z,4.63
2023-02-03T23:03:23.942Z,7.85
2023-02-03T23:05:51.637Z,7.00
2023-02-03T23:08:19.264Z,5.85
2023-02-03T23:10:48.147Z,5.70
2023-02-03T23:13:15.989Z,5.32
2023-02-03T23:15:45.008Z,7.53
2023-02-03T23:18:12.806Z,5.28
2023-02-03T23:20:43.531Z,4.55
2023-02-03T23:23:14.023Z,4.45
2023-02-03T23:25:41.704Z,4.80
2023-02-03T23:28:09.490Z,5.53
2023-02-03T23:30:37.205Z,4.97
2023-02-03T23:33:06.266Z,5.72
2023-02-03T23:35:49.248Z,5.40
2023-02-03T23:38:18.584Z,6.25
2023-02-03T23:40:47.768Z,5.15
2023-02-03T23:43:15.928Z,5.00
2023-02-03T23:45:43.705Z,5.93
2023-02-03T23:48:13.184Z,7.40
2023-02-03T23:50:40.821Z,4.90
2023-02-03T23:53:08.506Z,4.53
2023-02-03T23:55:36.434Z,5.10
2023-02-03T23:58:04.962Z,5.05
